sensor_id;sensor_type;location;lat;lon;timestamp;pressure;altitude;pressure_sealevel;temperature;humidity
22020;BME280;51298;53.362;-1.518;2023-11-21T00:00:55;99468.69;;;8.13;83.81
22020;BME280;51298;53.362;-1.518;2023-11-21T00:03:44;99472.63;;;8.17;83.73
22020;BME280;51298;53.362;-1.518;2023-11-21T00:06:17;99480.16;;;8.20;83.39
22020;BME280;51298;53.362;-1.518;2023-11-21T00:09:05;99485.09;;;8.23;83.01
22020;BME280;51298;53.362;-1.518;2023-11-21T00:11:41;99482.78;;;8.20;83.27
22020;BME280;51298;53.362;-1.518;2023-11-21T00:14:28;99487.59;;;8.15;83.39
22020;BME280;51298;53.362;-1.518;2023-11-21T00:17:03;99501.97;;;8.19;82.56
22020;BME280;51298;53.362;-1.518;2023-11-21T00:19:50;99502.63;;;8.21;82.70
22020;BME280;51298;53.362;-1.518;2023-11-21T00:22:27;99522.22;;;8.16;83.13
22020;BME280;51298;53.362;-1.518;2023-11-21T00:25:12;99519.63;;;8.16;82.50
22020;BME280;51298;53.362;-1.518;2023-11-21T00:27:51;99523.16;;;8.15;82.17
22020;BME280;51298;53.362;-1.518;2023-11-21T00:30:40;99538.66;;;8.16;82.65
22020;BME280;51298;53.362;-1.518;2023-11-21T00:33:13;99523.31;;;8.13;82.35
22020;BME280;51298;53.362;-1.518;2023-11-21T00:35:59;99528.66;;;8.12;82.74
22020;BME280;51298;53.362;-1.518;2023-11-21T00:38:33;99528.50;;;8.13;82.03
22020;BME280;51298;53.362;-1.518;2023-11-21T00:41:23;99532.19;;;8.11;81.76
22020;BME280;51298;53.362;-1.518;2023-11-21T00:43:57;99533.97;;;8.10;82.50
22020;BME280;51298;53.362;-1.518;2023-11-21T00:46:43;99545.78;;;8.04;82.13
22020;BME280;51298;53.362;-1.518;2023-11-21T00:49:16;99534.66;;;8.02;81.97
22020;BME280;51298;53.362;-1.518;2023-11-21T00:52:04;99536.59;;;8.00;81.63
22020;BME280;51298;53.362;-1.518;2023-11-21T00:54:37;99536.72;;;7.99;81.81
22020;BME280;51298;53.362;-1.518;2023-11-21T00:57:23;99550.84;;;7.96;81.25
22020;BME280;51298;53.362;-1.518;2023-11-21T00:59:57;99540.28;;;7.98;80.67
22020;BME280;51298;53.362;-1.518;2023-11-21T01:02:51;99536.06;;;7.97;80.74
22020;BME280;51298;53.362;-1.518;2023-11-21T01:05:24;99549.19;;;7.95;81.10
22020;BME280;51298;53.362;-1.518;2023-11-21T01:08:12;99563.16;;;7.94;80.62
22020;BME280;51298;53.362;-1.518;2023-11-21T01:10:47;99585.75;;;7.94;80.82
22020;BME280;51298;53.362;-1.518;2023-11-21T01:13:42;99567.69;;;7.92;80.52
22020;BME280;51298;53.362;-1.518;2023-11-21T01:16:16;99568.59;;;7.91;80.42
22020;BME280;51298;53.362;-1.518;2023-11-21T01:19:06;99570.38;;;7.91;80.54
22020;BME280;51298;53.362;-1.518;2023-11-21T01:21:38;99584.63;;;7.87;80.77
22020;BME280;51298;53.362;-1.518;2023-11-21T01:24:24;99579.84;;;7.82;80.74
22020;BME280;51298;53.362;-1.518;2023-11-21T01:26:57;99577.38;;;7.80;80.55
22020;BME280;51298;53.362;-1.518;2023-11-21T01:29:45;99569.84;;;7.77;80.97
22020;BME280;51298;53.362;-1.518;2023-11-21T01:32:18;99562.44;;;7.82;79.75
22020;BME280;51298;53.362;-1.518;2023-11-21T01:35:05;99568.06;;;7.78;80.42
22020;BME280;51298;53.362;-1.518;2023-11-21T01:37:42;99561.91;;;7.79;80.56
22020;BME280;51298;53.362;-1.518;2023-11-21T01:40:29;99570.66;;;7.78;80.07
22020;BME280;51298;53.362;-1.518;2023-11-21T01:43:04;99572.84;;;7.73;80.33
22020;BME280;51298;53.362;-1.518;2023-11-21T01:45:50;99586.53;;;7.75;80.65
22020;BME280;51298;53.362;-1.518;2023-11-21T01:48:24;99586.41;;;7.76;79.90
22020;BME280;51298;53.362;-1.518;2023-11-21T01:51:12;99593.66;;;7.73;79.61
22020;BME280;51298;53.362;-1.518;2023-11-21T01:53:46;99597.88;;;7.74;79.69
22020;BME280;51298;53.362;-1.518;2023-11-21T01:56:32;99605.69;;;7.74;79.38
22020;BME280;51298;53.362;-1.518;2023-11-21T01:59:05;99606.66;;;7.73;79.70
22020;BME280;51298;53.362;-1.518;2023-11-21T02:01:51;99617.72;;;7.75;79.07
22020;BME280;51298;53.362;-1.518;2023-11-21T02:04:28;99609.25;;;7.73;78.81
22020;BME280;51298;53.362;-1.518;2023-11-21T02:07:13;99622.38;;;7.71;78.80
22020;BME280;51298;53.362;-1.518;2023-11-21T02:09:46;99634.41;;;7.72;79.19
22020;BME280;51298;53.362;-1.518;2023-11-21T02:12:35;99632.34;;;7.66;79.04
22020;BME280;51298;53.362;-1.518;2023-11-21T02:15:12;99643.00;;;7.63;79.17
22020;BME280;51298;53.362;-1.518;2023-11-21T02:18:05;99647.94;;;7.66;79.42
22020;BME280;51298;53.362;-1.518;2023-11-21T02:20:38;99641.94;;;7.66;79.36
22020;BME280;51298;53.362;-1.518;2023-11-21T02:23:28;99634.00;;;7.67;78.79
22020;BME280;51298;53.362;-1.518;2023-11-21T02:26:01;99643.16;;;7.71;78.56
22020;BME280;51298;53.362;-1.518;2023-11-21T02:28:49;99659.31;;;7.65;78.62
22020;BME280;51298;53.362;-1.518;2023-11-21T02:31:25;99655.88;;;7.65;78.08
22020;BME280;51298;53.362;-1.518;2023-11-21T02:34:11;99659.88;;;7.69;78.34
22020;BME280;51298;53.362;-1.518;2023-11-21T02:36:46;99656.31;;;7.70;78.61
22020;BME280;51298;53.362;-1.518;2023-11-21T02:39:36;99654.66;;;7.69;78.46
22020;BME280;51298;53.362;-1.518;2023-11-21T02:42:09;99656.81;;;7.64;78.97
22020;BME280;51298;53.362;-1.518;2023-11-21T02:44:54;99654.94;;;7.66;78.69
22020;BME280;51298;53.362;-1.518;2023-11-21T02:47:27;99657.13;;;7.70;79.08
22020;BME280;51298;53.362;-1.518;2023-11-21T02:50:14;99658.34;;;7.66;78.83
22020;BME280;51298;53.362;-1.518;2023-11-21T02:52:46;99658.09;;;7.69;78.76
22020;BME280;51298;53.362;-1.518;2023-11-21T02:55:39;99670.38;;;7.67;78.82
22020;BME280;51298;53.362;-1.518;2023-11-21T02:58:12;99662.88;;;7.74;78.82
22020;BME280;51298;53.362;-1.518;2023-11-21T03:00:59;99658.66;;;7.73;78.41
22020;BME280;51298;53.362;-1.518;2023-11-21T03:03:33;99655.50;;;7.69;78.36
22020;BME280;51298;53.362;-1.518;2023-11-21T03:06:22;99666.81;;;7.68;78.41
22020;BME280;51298;53.362;-1.518;2023-11-21T03:08:57;99662.47;;;7.69;78.32
22020;BME280;51298;53.362;-1.518;2023-11-21T03:11:45;99650.66;;;7.65;78.64
22020;BME280;51298;53.362;-1.518;2023-11-21T03:14:18;99662.03;;;7.64;79.03
22020;BME280;51298;53.362;-1.518;2023-11-21T03:17:03;99672.31;;;7.65;79.14
22020;BME280;51298;53.362;-1.518;2023-11-21T03:19:38;99672.56;;;7.62;79.53
22020;BME280;51298;53.362;-1.518;2023-11-21T03:22:23;99679.00;;;7.68;80.23
22020;BME280;51298;53.362;-1.518;2023-11-21T03:24:58;99674.94;;;7.75;79.56
22020;BME280;51298;53.362;-1.518;2023-11-21T03:27:50;99675.06;;;7.73;79.41
22020;BME280;51298;53.362;-1.518;2023-11-21T03:30:23;99680.53;;;7.80;79.32
22020;BME280;51298;53.362;-1.518;2023-11-21T03:33:10;99687.81;;;7.76;79.70
22020;BME280;51298;53.362;-1.518;2023-11-21T03:35:44;99669.47;;;7.78;79.56
22020;BME280;51298;53.362;-1.518;2023-11-21T03:38:32;99670.81;;;7.72;80.10
22020;BME280;51298;53.362;-1.518;2023-11-21T03:41:06;99675.31;;;7.70;80.55
22020;BME280;51298;53.362;-1.518;2023-11-21T03:43:53;99687.81;;;7.76;80.12
22020;BME280;51298;53.362;-1.518;2023-11-21T03:46:27;99696.44;;;7.77;80.16
22020;BME280;51298;53.362;-1.518;2023-11-21T03:49:15;99706.28;;;7.73;80.32
22020;BME280;51298;53.362;-1.518;2023-11-21T03:51:48;99702.72;;;7.74;80.94
22020;BME280;51298;53.362;-1.518;2023-11-21T03:54:40;99704.81;;;7.80;80.23
22020;BME280;51298;53.362;-1.518;2023-11-21T03:57:13;99717.50;;;7.74;80.53
22020;BME280;51298;53.362;-1.518;2023-11-21T03:59:59;99711.34;;;7.75;80.69
22020;BME280;51298;53.362;-1.518;2023-11-21T04:02:39;99709.94;;;7.71;80.82
22020;BME280;51298;53.362;-1.518;2023-11-21T04:05:27;99711.88;;;7.69;81.34
22020;BME280;51298;53.362;-1.518;2023-11-21T04:08:04;99712.59;;;7.80;80.77
22020;BME280;51298;53.362;-1.518;2023-11-21T04:10:50;99721.47;;;7.78;81.03
22020;BME280;51298;53.362;-1.518;2023-11-21T04:13:23;99733.66;;;7.77;81.37
22020;BME280;51298;53.362;-1.518;2023-11-21T04:16:10;99738.28;;;7.74;81.44
22020;BME280;51298;53.362;-1.518;2023-11-21T04:18:44;99743.50;;;7.74;81.85
22020;BME280;51298;53.362;-1.518;2023-11-21T04:21:31;99742.78;;;7.72;82.18
22020;BME280;51298;53.362;-1.518;2023-11-21T04:24:05;99758.66;;;7.69;83.41
22020;BME280;51298;53.362;-1.518;2023-11-21T04:26:51;99766.78;;;7.54;84.08
22020;BME280;51298;53.362;-1.518;2023-11-21T04:29:25;99760.78;;;7.54;84.66
22020;BME280;51298;53.362;-1.518;2023-11-21T04:32:10;99758.81;;;7.46;85.12
22020;BME280;51298;53.362;-1.518;2023-11-21T04:34:45;99763.56;;;7.41;85.43
22020;BME280;51298;53.362;-1.518;2023-11-21T04:37:31;99765.97;;;7.33;86.43
22020;BME280;51298;53.362;-1.518;2023-11-21T04:40:05;99779.47;;;7.27;87.20
22020;BME280;51298;53.362;-1.518;2023-11-21T04:42:50;99783.00;;;7.26;87.61
22020;BME280;51298;53.362;-1.518;2023-11-21T04:45:23;99785.16;;;7.21;88.03
22020;BME280;51298;53.362;-1.518;2023-11-21T04:48:11;99792.28;;;7.19;88.64
22020;BME280;51298;53.362;-1.518;2023-11-21T04:50:44;99796.63;;;7.18;88.65
22020;BME280;51298;53.362;-1.518;2023-11-21T04:53:31;99796.75;;;7.17;88.84
22020;BME280;51298;53.362;-1.518;2023-11-21T04:56:05;99794.88;;;7.19;88.96
22020;BME280;51298;53.362;-1.518;2023-11-21T04:58:50;99804.56;;;7.17;88.93
22020;BME280;51298;53.362;-1.518;2023-11-21T05:01:23;99795.81;;;7.18;89.55
22020;BME280;51298;53.362;-1.518;2023-11-21T05:04:10;99802.66;;;7.19;89.53
22020;BME280;51298;53.362;-1.518;2023-11-21T05:06:44;99803.72;;;7.16;89.36
22020;BME280;51298;53.362;-1.518;2023-11-21T05:09:29;99814.94;;;7.17;89.75
22020;BME280;51298;53.362;-1.518;2023-11-21T05:12:04;99814.13;;;7.16;90.20
22020;BME280;51298;53.362;-1.518;2023-11-21T05:14:51;99809.03;;;7.15;90.24
22020;BME280;51298;53.362;-1.518;2023-11-21T05:17:24;99809.41;;;7.10;90.48
22020;BME280;51298;53.362;-1.518;2023-11-21T05:20:11;99815.69;;;7.07;90.82
22020;BME280;51298;53.362;-1.518;2023-11-21T05:22:45;99822.66;;;7.07;90.87
22020;BME280;51298;53.362;-1.518;2023-11-21T05:25:36;99825.81;;;7.10;91.22
22020;BME280;51298;53.362;-1.518;2023-11-21T05:28:09;99815.81;;;7.06;91.35
22020;BME280;51298;53.362;-1.518;2023-11-21T05:30:58;99829.63;;;7.06;91.41
22020;BME280;51298;53.362;-1.518;2023-11-21T05:33:32;99836.47;;;7.07;91.60
22020;BME280;51298;53.362;-1.518;2023-11-21T05:36:18;99840.72;;;7.08;91.34
22020;BME280;51298;53.362;-1.518;2023-11-21T05:38:51;99849.56;;;7.06;91.04
22020;BME280;51298;53.362;-1.518;2023-11-21T05:41:38;99854.28;;;7.12;90.94
22020;BME280;51298;53.362;-1.518;2023-11-21T05:44:10;99855.25;;;7.11;91.29
22020;BME280;51298;53.362;-1.518;2023-11-21T05:46:56;99873.28;;;7.13;90.77
22020;BME280;51298;53.362;-1.518;2023-11-21T05:49:34;99873.63;;;7.19;90.73
22020;BME280;51298;53.362;-1.518;2023-11-21T05:52:23;99890.72;;;7.22;90.78
22020;BME280;51298;53.362;-1.518;2023-11-21T05:54:56;99902.22;;;7.19;90.59
22020;BME280;51298;53.362;-1.518;2023-11-21T05:57:43;99892.75;;;7.18;90.78
22020;BME280;51298;53.362;-1.518;2023-11-21T06:04:02;99907.50;;;7.18;91.14
22020;BME280;51298;53.362;-1.518;2023-11-21T06:06:51;99915.78;;;7.23;90.89
22020;BME280;51298;53.362;-1.518;2023-11-21T06:09:27;99923.69;;;7.21;90.01
22020;BME280;51298;53.362;-1.518;2023-11-21T06:12:13;99927.25;;;7.20;90.66
22020;BME280;51298;53.362;-1.518;2023-11-21T06:14:46;99942.97;;;7.19;90.24
22020;BME280;51298;53.362;-1.518;2023-11-21T06:17:32;99944.38;;;7.23;89.73
22020;BME280;51298;53.362;-1.518;2023-11-21T06:20:08;99947.41;;;7.28;89.49
22020;BME280;51298;53.362;-1.518;2023-11-21T06:22:54;99956.03;;;7.28;89.35
22020;BME280;51298;53.362;-1.518;2023-11-21T06:25:27;99963.69;;;7.30;89.33
22020;BME280;51298;53.362;-1.518;2023-11-21T06:28:14;99972.44;;;7.29;89.60
22020;BME280;51298;53.362;-1.518;2023-11-21T06:30:50;99979.41;;;7.28;89.51
22020;BME280;51298;53.362;-1.518;2023-11-21T06:33:43;99983.19;;;7.24;89.52
22020;BME280;51298;53.362;-1.518;2023-11-21T06:36:16;99987.69;;;7.22;90.00
22020;BME280;51298;53.362;-1.518;2023-11-21T06:39:02;99999.03;;;7.21;89.50
22020;BME280;51298;53.362;-1.518;2023-11-21T06:41:42;99992.78;;;7.24;89.80
22020;BME280;51298;53.362;-1.518;2023-11-21T06:44:31;100000.44;;;7.25;90.16
22020;BME280;51298;53.362;-1.518;2023-11-21T06:47:06;100005.78;;;7.24;89.69
22020;BME280;51298;53.362;-1.518;2023-11-21T06:49:53;100012.38;;;7.28;89.77
22020;BME280;51298;53.362;-1.518;2023-11-21T06:52:26;100031.03;;;7.22;89.74
22020;BME280;51298;53.362;-1.518;2023-11-21T06:55:12;100028.31;;;7.23;89.57
22020;BME280;51298;53.362;-1.518;2023-11-21T06:57:45;100041.41;;;7.22;90.14
22020;BME280;51298;53.362;-1.518;2023-11-21T07:00:34;100044.16;;;7.20;90.04
22020;BME280;51298;53.362;-1.518;2023-11-21T07:03:08;100053.59;;;7.21;89.74
22020;BME280;51298;53.362;-1.518;2023-11-21T07:05:54;100059.16;;;7.17;90.58
22020;BME280;51298;53.362;-1.518;2023-11-21T07:08:26;100066.13;;;7.16;90.29
22020;BME280;51298;53.362;-1.518;2023-11-21T07:11:12;100082.53;;;7.17;90.32
22020;BME280;51298;53.362;-1.518;2023-11-21T07:13:45;100080.66;;;7.19;89.95
22020;BME280;51298;53.362;-1.518;2023-11-21T07:16:31;100088.09;;;7.12;90.34
22020;BME280;51298;53.362;-1.518;2023-11-21T07:19:04;100093.16;;;7.14;90.38
22020;BME280;51298;53.362;-1.518;2023-11-21T07:21:50;100105.44;;;7.12;90.30
22020;BME280;51298;53.362;-1.518;2023-11-21T07:24:23;100108.75;;;7.14;90.63
22020;BME280;51298;53.362;-1.518;2023-11-21T07:27:10;100124.91;;;7.17;89.74
22020;BME280;51298;53.362;-1.518;2023-11-21T07:29:44;100102.38;;;7.18;89.73
22020;BME280;51298;53.362;-1.518;2023-11-21T07:32:31;100116.53;;;7.14;89.73
22020;BME280;51298;53.362;-1.518;2023-11-21T07:35:04;100116.31;;;7.17;89.67
22020;BME280;51298;53.362;-1.518;2023-11-21T07:37:50;100112.50;;;7.09;89.76
22020;BME280;51298;53.362;-1.518;2023-11-21T07:40:23;100114.88;;;7.13;90.02
22020;BME280;51298;53.362;-1.518;2023-11-21T07:42:56;100118.75;;;7.07;90.44
22020;BME280;51298;53.362;-1.518;2023-11-21T07:45:42;100137.19;;;7.04;90.34
22020;BME280;51298;53.362;-1.518;2023-11-21T07:48:15;100145.47;;;7.09;90.05
22020;BME280;51298;53.362;-1.518;2023-11-21T07:51:03;100148.19;;;7.07;89.77
22020;BME280;51298;53.362;-1.518;2023-11-21T07:53:36;100154.22;;;7.08;89.69
22020;BME280;51298;53.362;-1.518;2023-11-21T07:56:22;100157.84;;;7.05;89.36
22020;BME280;51298;53.362;-1.518;2023-11-21T07:58:55;100153.84;;;7.01;89.49
22020;BME280;51298;53.362;-1.518;2023-11-21T08:01:41;100175.66;;;6.99;89.75
22020;BME280;51298;53.362;-1.518;2023-11-21T08:04:19;100180.97;;;6.97;90.41
22020;BME280;51298;53.362;-1.518;2023-11-21T08:07:05;100174.59;;;6.90;90.48
22020;BME280;51298;53.362;-1.518;2023-11-21T08:09:38;100184.28;;;6.88;90.06
22020;BME280;51298;53.362;-1.518;2023-11-21T08:12:26;100177.19;;;6.90;90.30
22020;BME280;51298;53.362;-1.518;2023-11-21T08:15:01;100185.09;;;6.89;90.29
22020;BME280;51298;53.362;-1.518;2023-11-21T08:17:47;100191.94;;;6.90;90.05
22020;BME280;51298;53.362;-1.518;2023-11-21T08:20:23;100199.59;;;6.91;89.68
22020;BME280;51298;53.362;-1.518;2023-11-21T08:23:10;100197.13;;;6.90;89.86
22020;BME280;51298;53.362;-1.518;2023-11-21T08:25:43;100209.06;;;6.92;89.94
22020;BME280;51298;53.362;-1.518;2023-11-21T08:28:30;100207.75;;;6.87;89.57
22020;BME280;51298;53.362;-1.518;2023-11-21T08:31:03;100219.56;;;6.91;89.46
22020;BME280;51298;53.362;-1.518;2023-11-21T08:33:50;100220.28;;;6.93;89.08
22020;BME280;51298;53.362;-1.518;2023-11-21T08:36:23;100237.50;;;6.94;89.12
22020;BME280;51298;53.362;-1.518;2023-11-21T08:39:10;100241.75;;;6.95;88.58
22020;BME280;51298;53.362;-1.518;2023-11-21T08:41:43;100233.75;;;6.98;87.76
22020;BME280;51298;53.362;-1.518;2023-11-21T08:44:29;100239.91;;;6.97;88.70
22020;BME280;51298;53.362;-1.518;2023-11-21T08:47:03;100244.69;;;6.90;88.33
22020;BME280;51298;53.362;-1.518;2023-11-21T08:49:50;100255.91;;;6.91;88.56
22020;BME280;51298;53.362;-1.518;2023-11-21T08:52:25;100254.88;;;6.93;88.93
22020;BME280;51298;53.362;-1.518;2023-11-21T08:55:10;100259.59;;;6.88;88.48
22020;BME280;51298;53.362;-1.518;2023-11-21T08:57:44;100268.69;;;6.94;88.29
22020;BME280;51298;53.362;-1.518;2023-11-21T09:00:32;100264.16;;;6.84;88.66
22020;BME280;51298;53.362;-1.518;2023-11-21T09:03:05;100268.41;;;6.85;88.95
22020;BME280;51298;53.362;-1.518;2023-11-21T09:05:52;100287.16;;;6.78;89.61
22020;BME280;51298;53.362;-1.518;2023-11-21T09:08:25;100285.09;;;6.70;90.16
22020;BME280;51298;53.362;-1.518;2023-11-21T09:11:11;100277.19;;;6.72;90.32
22020;BME280;51298;53.362;-1.518;2023-11-21T09:13:44;100282.72;;;6.67;90.22
22020;BME280;51298;53.362;-1.518;2023-11-21T09:16:32;100277.53;;;6.67;90.52
22020;BME280;51298;53.362;-1.518;2023-11-21T09:19:05;100286.03;;;6.69;90.30
22020;BME280;51298;53.362;-1.518;2023-11-21T09:21:52;100296.31;;;6.71;90.42
22020;BME280;51298;53.362;-1.518;2023-11-21T09:24:39;100289.25;;;6.73;89.65
22020;BME280;51298;53.362;-1.518;2023-11-21T09:27:25;100298.69;;;6.74;89.31
22020;BME280;51298;53.362;-1.518;2023-11-21T09:29:58;100305.75;;;6.72;89.17
22020;BME280;51298;53.362;-1.518;2023-11-21T09:32:44;100305.31;;;6.78;88.53
22020;BME280;51298;53.362;-1.518;2023-11-21T09:35:18;100310.50;;;6.78;87.56
22020;BME280;51298;53.362;-1.518;2023-11-21T09:38:03;100321.50;;;6.81;87.61
22020;BME280;51298;53.362;-1.518;2023-11-21T09:40:42;100333.75;;;6.79;87.33
22020;BME280;51298;53.362;-1.518;2023-11-21T09:43:32;100326.59;;;6.83;87.02
22020;BME280;51298;53.362;-1.518;2023-11-21T09:46:07;100335.09;;;6.85;86.63
22020;BME280;51298;53.362;-1.518;2023-11-21T09:49:00;100333.94;;;6.89;85.86
22020;BME280;51298;53.362;-1.518;2023-11-21T09:51:39;100330.41;;;6.90;85.02
22020;BME280;51298;53.362;-1.518;2023-11-21T09:54:25;100339.09;;;7.02;86.20
22020;BME280;51298;53.362;-1.518;2023-11-21T09:56:59;100334.97;;;7.10;84.87
22020;BME280;51298;53.362;-1.518;2023-11-21T09:59:46;100354.03;;;7.11;84.33
22020;BME280;51298;53.362;-1.518;2023-11-21T10:02:26;100379.38;;;7.07;84.17
22020;BME280;51298;53.362;-1.518;2023-11-21T10:05:14;100355.75;;;7.10;84.14
22020;BME280;51298;53.362;-1.518;2023-11-21T10:07:50;100378.94;;;7.14;84.37
22020;BME280;51298;53.362;-1.518;2023-11-21T10:10:38;100381.13;;;7.07;83.74
22020;BME280;51298;53.362;-1.518;2023-11-21T10:13:17;100367.22;;;7.08;83.43
22020;BME280;51298;53.362;-1.518;2023-11-21T10:16:04;100370.53;;;7.10;83.37
22020;BME280;51298;53.362;-1.518;2023-11-21T10:18:40;100379.25;;;7.09;82.79
22020;BME280;51298;53.362;-1.518;2023-11-21T10:21:26;100378.28;;;7.23;82.52
22020;BME280;51298;53.362;-1.518;2023-11-21T10:24:00;100386.66;;;7.26;81.42
22020;BME280;51298;53.362;-1.518;2023-11-21T10:26:47;100395.59;;;7.35;81.34
22020;BME280;51298;53.362;-1.518;2023-11-21T10:29:24;100397.97;;;7.38;81.72
22020;BME280;51298;53.362;-1.518;2023-11-21T10:32:11;100407.28;;;7.41;81.28
22020;BME280;51298;53.362;-1.518;2023-11-21T10:34:55;100406.03;;;7.46;81.75
22020;BME280;51298;53.362;-1.518;2023-11-21T10:37:59;100413.03;;;7.57;80.37
22020;BME280;51298;53.362;-1.518;2023-11-21T10:40:33;100419.38;;;7.53;80.98
22020;BME280;51298;53.362;-1.518;2023-11-21T10:43:19;100428.66;;;7.68;79.93
22020;BME280;51298;53.362;-1.518;2023-11-21T10:45:58;100425.81;;;7.60;79.80
22020;BME280;51298;53.362;-1.518;2023-11-21T10:48:44;100425.06;;;7.47;79.94
22020;BME280;51298;53.362;-1.518;2023-11-21T10:51:18;100429.97;;;7.39;79.19
22020;BME280;51298;53.362;-1.518;2023-11-21T10:54:05;100431.13;;;7.34;80.21
22020;BME280;51298;53.362;-1.518;2023-11-21T10:56:39;100437.38;;;7.32;80.05
22020;BME280;51298;53.362;-1.518;2023-11-21T10:59:29;100425.75;;;7.25;80.16
22020;BME280;51298;53.362;-1.518;2023-11-21T11:02:28;100446.34;;;7.28;80.72
22020;BME280;51298;53.362;-1.518;2023-11-21T11:05:19;100444.06;;;7.23;80.06
22020;BME280;51298;53.362;-1.518;2023-11-21T11:08:00;100454.97;;;7.28;79.35
22020;BME280;51298;53.362;-1.518;2023-11-21T11:10:50;100459.88;;;7.44;78.52
22020;BME280;51298;53.362;-1.518;2023-11-21T11:13:23;100462.72;;;7.65;78.94
22020;BME280;51298;53.362;-1.518;2023-11-21T11:16:09;100460.25;;;7.75;78.30
22020;BME280;51298;53.362;-1.518;2023-11-21T11:18:42;100459.75;;;7.94;77.80
22020;BME280;51298;53.362;-1.518;2023-11-21T11:21:39;100462.81;;;7.99;76.59
22020;BME280;51298;53.362;-1.518;2023-11-21T11:38:37;100445.81;;;8.06;74.12
22020;BME280;51298;53.362;-1.518;2023-11-21T11:41:30;100455.25;;;8.07;73.17
22020;BME280;51298;53.362;-1.518;2023-11-21T11:47:38;100460.47;;;8.07;74.03
22020;BME280;51298;53.362;-1.518;2023-11-21T11:50:15;100471.09;;;7.93;73.86
22020;BME280;51298;53.362;-1.518;2023-11-21T11:53:15;100474.88;;;7.89;73.87
22020;BME280;51298;53.362;-1.518;2023-11-21T11:56:00;100493.84;;;7.78;73.42
22020;BME280;51298;53.362;-1.518;2023-11-21T11:59:04;100500.50;;;7.58;72.99
22020;BME280;51298;53.362;-1.518;2023-11-21T12:01:46;100498.25;;;7.53;73.30
22020;BME280;51298;53.362;-1.518;2023-11-21T12:04:33;100486.34;;;7.62;73.87
22020;BME280;51298;53.362;-1.518;2023-11-21T12:07:06;100475.72;;;7.65;72.67
22020;BME280;51298;53.362;-1.518;2023-11-21T12:09:53;100473.38;;;7.73;73.55
22020;BME280;51298;53.362;-1.518;2023-11-21T12:12:29;100488.66;;;7.78;73.55
22020;BME280;51298;53.362;-1.518;2023-11-21T12:15:16;100482.41;;;7.80;73.23
22020;BME280;51298;53.362;-1.518;2023-11-21T12:17:49;100481.78;;;7.77;73.73
22020;BME280;51298;53.362;-1.518;2023-11-21T12:20:35;100485.00;;;7.80;72.96
22020;BME280;51298;53.362;-1.518;2023-11-21T12:23:11;100477.56;;;7.87;73.65
22020;BME280;51298;53.362;-1.518;2023-11-21T12:25:56;100476.78;;;7.98;72.76
22020;BME280;51298;53.362;-1.518;2023-11-21T12:28:34;100478.72;;;8.18;71.60
22020;BME280;51298;53.362;-1.518;2023-11-21T12:31:20;100479.16;;;8.01;70.93
22020;BME280;51298;53.362;-1.518;2023-11-21T12:33:53;100483.75;;;7.97;71.96
22020;BME280;51298;53.362;-1.518;2023-11-21T12:36:39;100483.41;;;8.02;71.74
22020;BME280;51298;53.362;-1.518;2023-11-21T12:39:12;100482.25;;;8.06;71.48
22020;BME280;51298;53.362;-1.518;2023-11-21T12:42:03;100477.03;;;8.06;72.22
22020;BME280;51298;53.362;-1.518;2023-11-21T12:44:36;100474.38;;;8.30;71.68
22020;BME280;51298;53.362;-1.518;2023-11-21T12:47:24;100474.09;;;8.68;70.04
22020;BME280;51298;53.362;-1.518;2023-11-21T12:49:57;100477.16;;;8.51;70.70
22020;BME280;51298;53.362;-1.518;2023-11-21T12:52:45;100483.19;;;8.40;72.53
22020;BME280;51298;53.362;-1.518;2023-11-21T12:55:30;100497.66;;;8.20;73.39
22020;BME280;51298;53.362;-1.518;2023-11-21T12:58:17;100502.75;;;8.22;74.52
22020;BME280;51298;53.362;-1.518;2023-11-21T13:00:53;100511.53;;;7.97;75.46
22020;BME280;51298;53.362;-1.518;2023-11-21T13:03:40;100507.34;;;7.83;75.04
22020;BME280;51298;53.362;-1.518;2023-11-21T13:06:18;100509.28;;;7.92;75.77
22020;BME280;51298;53.362;-1.518;2023-11-21T13:09:04;100513.75;;;7.90;76.38
22020;BME280;51298;53.362;-1.518;2023-11-21T13:11:37;100525.19;;;7.76;76.17
22020;BME280;51298;53.362;-1.518;2023-11-21T13:14:29;100541.34;;;7.69;77.31
22020;BME280;51298;53.362;-1.518;2023-11-21T13:17:04;100534.97;;;7.73;77.63
22020;BME280;51298;53.362;-1.518;2023-11-21T13:19:52;100532.06;;;7.65;77.50
22020;BME280;51298;53.362;-1.518;2023-11-21T13:22:27;100529.53;;;7.76;77.97
22020;BME280;51298;53.362;-1.518;2023-11-21T13:25:16;100532.03;;;7.77;76.84
22020;BME280;51298;53.362;-1.518;2023-11-21T13:27:49;100542.66;;;7.74;77.48
22020;BME280;51298;53.362;-1.518;2023-11-21T13:30:35;100549.34;;;7.66;77.09
22020;BME280;51298;53.362;-1.518;2023-11-21T13:33:08;100563.78;;;7.70;78.31
22020;BME280;51298;53.362;-1.518;2023-11-21T13:36:00;100562.63;;;7.74;77.79
22020;BME280;51298;53.362;-1.518;2023-11-21T13:38:34;100565.09;;;7.88;77.56
22020;BME280;51298;53.362;-1.518;2023-11-21T13:41:24;100571.72;;;7.92;77.29
22020;BME280;51298;53.362;-1.518;2023-11-21T13:44:04;100573.81;;;7.87;76.59
22020;BME280;51298;53.362;-1.518;2023-11-21T13:47:06;100579.69;;;8.02;76.72
22020;BME280;51298;53.362;-1.518;2023-11-21T13:49:39;100576.81;;;7.94;76.77
22020;BME280;51298;53.362;-1.518;2023-11-21T13:52:29;100587.41;;;7.91;76.35
22020;BME280;51298;53.362;-1.518;2023-11-21T13:55:05;100574.16;;;7.82;77.10
22020;BME280;51298;53.362;-1.518;2023-11-21T13:57:54;100565.66;;;7.92;76.62
22020;BME280;51298;53.362;-1.518;2023-11-21T14:00:27;100553.25;;;7.84;76.29
22020;BME280;51298;53.362;-1.518;2023-11-21T14:03:26;100554.72;;;7.75;77.35
22020;BME280;51298;53.362;-1.518;2023-11-21T14:06:12;100557.38;;;7.87;76.56
22020;BME280;51298;53.362;-1.518;2023-11-21T14:09:04;100558.25;;;7.98;76.72
22020;BME280;51298;53.362;-1.518;2023-11-21T14:11:38;100562.19;;;8.04;76.31
22020;BME280;51298;53.362;-1.518;2023-11-21T14:14:26;100562.63;;;7.98;76.03
22020;BME280;51298;53.362;-1.518;2023-11-21T14:16:59;100564.75;;;7.93;76.43
22020;BME280;51298;53.362;-1.518;2023-11-21T14:19:46;100568.44;;;7.77;77.61
22020;BME280;51298;53.362;-1.518;2023-11-21T14:22:20;100586.19;;;7.59;77.27
22020;BME280;51298;53.362;-1.518;2023-11-21T14:25:06;100578.09;;;7.51;77.89
22020;BME280;51298;53.362;-1.518;2023-11-21T14:27:39;100574.75;;;7.62;77.61
22020;BME280;51298;53.362;-1.518;2023-11-21T14:30:26;100585.41;;;7.46;78.02